Observation data for Andrews on 05/14/2018      Previous  Date  Next       Current Mesonet Observations  Soil Data  Daily Summary Page  Observations in Plain Language
KANS 140500Z 18010G16KT 25/15 A2995 RMK A01 T02540147  RH  053%=      5-min Rain = 0
KANS 140505Z 18009G14KT 25/15 A2995 RMK A01 T02520148  RH  054%=      5-min Rain = 0
KANS 140510Z 18012G19KT 25/15 A2995 RMK A01 T02510151  RH  055%=      5-min Rain = 0
KANS 140515Z 17010KT 25/15 A2994 RMK A01 T02500152  RH  056%=      5-min Rain = 0
KANS 140520Z 18010KT 25/15 A2994 RMK A01 T02480152  RH  056%=      5-min Rain = 0
KANS 140525Z 17008KT 25/15 A2995 RMK A01 T02460153  RH  057%=      5-min Rain = 0
KANS 140530Z 18009G15KT 25/15 A2995 RMK A01 T02450152  RH  057%=      5-min Rain = 0
KANS 140535Z 18011G17KT 25/15 A2995 RMK A01 T02450150  RH  057%=      5-min Rain = 0
KANS 140540Z 18010G15KT 24/15 A2995 RMK A01 T02440148  RH  056%=      5-min Rain = 0
KANS 140545Z 18010KT 24/15 A2995 RMK A01 T02430148  RH  056%=      5-min Rain = 0
KANS 140550Z 18010G15KT 24/15 A2995 RMK A01 T02420149  RH  057%=      5-min Rain = 0
KANS 140555Z 19010G15KT 24/15 A2995 RMK A01 T02410149  RH  058%=      5-min Rain = 0
KANS 140600Z 19010KT 24/15 A2995 RMK A01 T02410150  RH  058%=      5-min Rain = 0
KANS 140605Z 19010G16KT 24/15 A2995 RMK A01 T02400151  RH  059%=      5-min Rain = 0
KANS 140610Z 18009G14KT 24/15 A2995 RMK A01 T02390152  RH  059%=      5-min Rain = 0
KANS 140615Z 19008KT 24/15 A2995 RMK A01 T02380153  RH  060%=      5-min Rain = 0
KANS 140620Z 19008KT 24/15 A2995 RMK A01 T02380154  RH  060%=      5-min Rain = 0
KANS 140625Z 19007KT 24/15 A2995 RMK A01 T02370154  RH  061%=      5-min Rain = 0
KANS 140630Z 19007KT 24/15 A2995 RMK A01 T02360154  RH  061%=      5-min Rain = 0
KANS 140635Z 18008KT 24/16 A2995 RMK A01 T02360155  RH  062%=      5-min Rain = 0
KANS 140640Z 18008KT 24/16 A2995 RMK A01 T02350155  RH  062%=      5-min Rain = 0
KANS 140645Z 18008KT 23/16 A2995 RMK A01 T02340155  RH  063%=      5-min Rain = 0
KANS 140650Z 18008KT 23/16 A2995 RMK A01 T02340156  RH  063%=      5-min Rain = 0
KANS 140655Z 18007KT 23/16 A2995 RMK A01 T02330156  RH  063%=      5-min Rain = 0
KANS 140700Z 18006KT 23/16 A2995 RMK A01 T02320156  RH  064%=      5-min Rain = 0
KANS 140705Z 18005KT 23/16 A2994 RMK A01 T02310156  RH  064%=      5-min Rain = 0
KANS 140710Z 18005KT 23/16 A2994 RMK A01 T02310156  RH  064%=      5-min Rain = 0
KANS 140715Z 20003KT 23/16 A2994 RMK A01 T02290156  RH  065%=      5-min Rain = 0
KANS 140720Z 22003KT 23/16 A2995 RMK A01 T02280156  RH  065%=      5-min Rain = 0
KANS 140725Z 22002KT 23/16 A2995 RMK A01 T02270156  RH  066%=      5-min Rain = 0
KANS 140730Z 21003KT 23/16 A2994 RMK A01 T02250156  RH  066%=      5-min Rain = 0
KANS 140735Z 20004KT 23/16 A2994 RMK A01 T02250156  RH  067%=      5-min Rain = 0
KANS 140740Z 18005KT 22/16 A2994 RMK A01 T02240156  RH  067%=      5-min Rain = 0
KANS 140745Z 18005KT 22/16 A2994 RMK A01 T02230156  RH  067%=      5-min Rain = 0
KANS 140750Z 18005KT 22/16 A2994 RMK A01 T02230156  RH  067%=      5-min Rain = 0
KANS 140755Z 18005KT 22/16 A2994 RMK A01 T02220156  RH  067%=      5-min Rain = 0
KANS 140800Z 18004KT 22/16 A2994 RMK A01 T02210156  RH  068%=      5-min Rain = 0
KANS 140805Z 18004KT 22/16 A2994 RMK A01 T02200156  RH  068%=      5-min Rain = 0
KANS 140810Z 19003KT 22/16 A2993 RMK A01 T02190155  RH  069%=      5-min Rain = 0
KANS 140815Z 19002KT 22/16 A2993 RMK A01 T02180155  RH  069%=      5-min Rain = 0
KANS 140820Z 18002KT 22/15 A2993 RMK A01 T02170154  RH  069%=      5-min Rain = 0
KANS 140825Z 16001KT 22/16 A2994 RMK A01 T02160155  RH  069%=      5-min Rain = 0
KANS 140830Z 24001KT 22/15 A2994 RMK A01 T02150154  RH  070%=      5-min Rain = 0
KANS 140835Z 24001KT 21/15 A2994 RMK A01 T02140153  RH  070%=      5-min Rain = 0
KANS 140840Z 22002KT 21/15 A2994 RMK A01 T02130152  RH  070%=      5-min Rain = 0
KANS 140845Z 20003KT 21/15 A2994 RMK A01 T02120153  RH  070%=      5-min Rain = 0
KANS 140850Z 19003KT 21/15 A2994 RMK A01 T02110153  RH  071%=      5-min Rain = 0
KANS 140855Z 20003KT 21/15 A2994 RMK A01 T02100154  RH  072%=      5-min Rain = 0
KANS 140900Z 22003KT 21/15 A2994 RMK A01 T02090154  RH  072%=      5-min Rain = 0
KANS 140905Z 23003KT 21/15 A2994 RMK A01 T02070154  RH  073%=      5-min Rain = 0
KANS 140910Z 23002KT 21/15 A2994 RMK A01 T02060154  RH  074%=      5-min Rain = 0
KANS 140915Z 22002KT 21/16 A2994 RMK A01 T02050155  RH  075%=      5-min Rain = 0
KANS 140920Z 21002KT 21/16 A2994 RMK A01 T02050157  RH  076%=      5-min Rain = 0
KANS 140925Z 20003KT 20/15 A2994 RMK A01 T02040153  RH  074%=      5-min Rain = 0
KANS 140930Z 20002KT 20/15 A2994 RMK A01 T02020154  RH  075%=      5-min Rain = 0
KANS 140935Z 19002KT 20/15 A2995 RMK A01 T02010154  RH  076%=      5-min Rain = 0
KANS 140940Z 18001KT 20/15 A2995 RMK A01 T01990151  RH  075%=      5-min Rain = 0
KANS 140945Z 17001KT 20/15 A2995 RMK A01 T01990152  RH  076%=      5-min Rain = 0
KANS 140950Z 14001KT 20/15 A2995 RMK A01 T01990153  RH  076%=      5-min Rain = 0
KANS 140955Z 12002KT 20/15 A2995 RMK A01 T01990153  RH  076%=      5-min Rain = 0
KANS 141000Z 09003KT 20/15 A2995 RMK A01 T01980149  RH  075%=      5-min Rain = 0
KANS 141005Z 09004KT 19/15 A2995 RMK A01 T01940146  RH  075%=      5-min Rain = 0
KANS 141010Z 09004KT 19/15 A2995 RMK A01 T01940147  RH  076%=      5-min Rain = 0
KANS 141015Z 09004KT 19/15 A2995 RMK A01 T01930147  RH  076%=      5-min Rain = 0
KANS 141020Z 08004KT 19/15 A2995 RMK A01 T01930147  RH  076%=      5-min Rain = 0
KANS 141025Z 08004KT 19/15 A2995 RMK A01 T01920146  RH  076%=      5-min Rain = 0
KANS 141030Z 08004KT 19/15 A2995 RMK A01 T01910145  RH  076%=      5-min Rain = 0
KANS 141035Z 08004KT 19/14 A2995 RMK A01 T01900144  RH  076%=      5-min Rain = 0
KANS 141040Z 08004KT 19/14 A2995 RMK A01 T01900144  RH  076%=      5-min Rain = 0
KANS 141045Z 08005KT 19/15 A2995 RMK A01 T01900146  RH  077%=      5-min Rain = 0
KANS 141050Z 09004KT 19/15 A2995 RMK A01 T01920148  RH  077%=      5-min Rain = 0
KANS 141055Z 09005KT 19/15 A2995 RMK A01 T01940150  RH  077%=      5-min Rain = 0
KANS 141100Z 10004KT 20/15 A2995 RMK A01 T01960150  RH  076%=      5-min Rain = 0
KANS 141105Z 10004KT 20/15 A2995 RMK A01 T01980151  RH  076%=      5-min Rain = 0
KANS 141110Z 10004KT 20/15 A2995 RMK A01 T01980151  RH  076%=      5-min Rain = 0
KANS 141115Z 11005KT 20/15 A2995 RMK A01 T02000152  RH  076%=      5-min Rain = 0
KANS 141120Z 11006KT 20/15 A2995 RMK A01 T02010152  RH  075%=      5-min Rain = 0
KANS 141125Z 11006KT 20/15 A2995 RMK A01 T02020152  RH  075%=      5-min Rain = 0
KANS 141130Z 11005KT 20/15 A2995 RMK A01 T02010151  RH  075%=      5-min Rain = 0
KANS 141135Z 11005KT 20/15 A2995 RMK A01 T01990151  RH  075%=      5-min Rain = 0
KANS 141140Z 11005KT 20/15 A2996 RMK A01 T01990151  RH  076%=      5-min Rain = 0
KANS 141145Z 12005KT 20/15 A2996 RMK A01 T01980152  RH  076%=      5-min Rain = 0
KANS 141150Z 11005KT 20/15 A2996 RMK A01 T01970152  RH  077%=      5-min Rain = 0
KANS 141155Z 11006KT 20/15 A2996 RMK A01 T01970152  RH  077%=      5-min Rain = 0
KANS 141200Z 12005KT 20/15 A2996 RMK A01 T01960151  RH  077%=      5-min Rain = 0
KANS 141205Z 11005KT 20/15 A2996 RMK A01 T01960151  RH  077%=      5-min Rain = 0
KANS 141210Z 12006KT 20/15 A2996 RMK A01 T01960151  RH  077%=      5-min Rain = 0
KANS 141215Z 12006KT 20/15 A2997 RMK A01 T01960151  RH  077%=      5-min Rain = 0
KANS 141220Z 12006KT 20/15 A2997 RMK A01 T01950151  RH  077%=      5-min Rain = 0
KANS 141225Z 12005KT 20/15 A2997 RMK A01 T01960152  RH  077%=      5-min Rain = 0
KANS 141230Z 12005KT 20/15 A2998 RMK A01 T01970152  RH  077%=      5-min Rain = 0
KANS 141235Z 12005KT 20/15 A2998 RMK A01 T01980152  RH  076%=      5-min Rain = 0
KANS 141240Z 12005KT 20/15 A2998 RMK A01 T01990152  RH  076%=      5-min Rain = 0
KANS 141245Z 12005KT 20/15 A2998 RMK A01 T02000152  RH  076%=      5-min Rain = 0
KANS 141250Z 12004KT 20/15 A2998 RMK A01 T02000152  RH  075%=      5-min Rain = 0
KANS 141255Z 12005KT 20/15 A2998 RMK A01 T02000152  RH  076%=      5-min Rain = 0
KANS 141300Z 11005KT 20/15 A2998 RMK A01 T02000152  RH  076%=      5-min Rain = 0
KANS 141305Z 10005KT 20/15 A2998 RMK A01 T02010153  RH  075%=      5-min Rain = 0
KANS 141310Z 11004KT 20/15 A2998 RMK A01 T02020153  RH  075%=      5-min Rain = 0
KANS 141315Z 13004KT 20/15 A2998 RMK A01 T02020153  RH  075%=      5-min Rain = 0
KANS 141320Z 12004KT 20/15 A2998 RMK A01 T02020153  RH  075%=      5-min Rain = 0
KANS 141325Z 11005KT 20/15 A2998 RMK A01 T02020153  RH  075%=      5-min Rain = 0
KANS 141330Z 12004KT 20/15 A2999 RMK A01 T02030153  RH  075%=      5-min Rain = 0
KANS 141335Z 12004KT 21/15 A2999 RMK A01 T02060154  RH  074%=      5-min Rain = 0
KANS 141340Z 12004KT 21/16 A2999 RMK A01 T02100156  RH  073%=      5-min Rain = 0
KANS 141345Z 12004KT 22/16 A2999 RMK A01 T02160157  RH  070%=      5-min Rain = 0
KANS 141350Z 12005KT 22/16 A30 RMK A01 T02190156  RH  069%=      5-min Rain = 0
KANS 141355Z 14006KT 22/16 A30 RMK A01 T02200156  RH  069%=      5-min Rain = 0
KANS 141400Z 14005KT 22/16 A2999 RMK A01 T02230157  RH  068%=      5-min Rain = 0
KANS 141405Z 14006KT 23/16 A2999 RMK A01 T02270158  RH  067%=      5-min Rain = 0
KANS 141410Z 16007KT 23/16 A2999 RMK A01 T02330159  RH  065%=      5-min Rain = 0
KANS 141415Z 17008KT 24/16 A2999 RMK A01 T02360158  RH  063%=      5-min Rain = 0
KANS 141420Z 17008G13KT 23/16 A2999 RMK A01 T02330158  RH  064%=      5-min Rain = 0
KANS 141425Z 18008KT 23/16 A2999 RMK A01 T02320158  RH  065%=      5-min Rain = 0
KANS 141430Z 18009KT 23/16 A2999 RMK A01 T02320158  RH  064%=      5-min Rain = 0
KANS 141435Z 18010KT 23/16 A2999 RMK A01 T02320158  RH  065%=      5-min Rain = 0
KANS 141440Z 17009KT 23/16 A2999 RMK A01 T02320158  RH  065%=      5-min Rain = 0
KANS 141445Z 19008G13KT 23/16 A30 RMK A01 T02340158  RH  064%=      5-min Rain = 0
KANS 141450Z 19009G14KT 23/16 A3001 RMK A01 T02340158  RH  063%=      5-min Rain = 0
KANS 141455Z 18010KT 24/16 A3001 RMK A01 T02350158  RH  063%=      5-min Rain = 0
KANS 141500Z 19010G15KT 24/16 A3001 RMK A01 T02350158  RH  063%=      5-min Rain = 0
KANS 141505Z 20011G16KT 23/16 A3002 RMK A01 T02340158  RH  064%=      5-min Rain = 0
KANS 141510Z 20012G17KT 23/16 A3002 RMK A01 T02330159  RH  065%=      5-min Rain = 0
KANS 141515Z 20009G14KT 23/16 A3002 RMK A01 T02340160  RH  065%=      5-min Rain = 0
KANS 141520Z 20010KT 24/16 A3002 RMK A01 T02350161  RH  065%=      5-min Rain = 0
KANS 141525Z 20008G16KT 24/16 A3002 RMK A01 T02360161  RH  064%=      5-min Rain = 0
KANS 141530Z 20008KT 24/16 A3002 RMK A01 T02370160  RH  063%=      5-min Rain = 0
KANS 141535Z 20010KT 24/16 A3002 RMK A01 T02380158  RH  062%=      5-min Rain = 0
KANS 141540Z 21009KT 24/16 A3002 RMK A01 T02380156  RH  061%=      5-min Rain = 0
KANS 141545Z 21010G15KT 24/16 A3002 RMK A01 T02380155  RH  061%=      5-min Rain = 0
KANS 141550Z 21008KT 24/16 A3002 RMK A01 T02380155  RH  061%=      5-min Rain = 0
KANS 141555Z 20009KT 24/15 A3002 RMK A01 T02380154  RH  061%=      5-min Rain = 0
KANS 141600Z 22007KT 24/15 A3002 RMK A01 T02390153  RH  060%=      5-min Rain = 0
KANS 141605Z 23007KT 24/15 A3001 RMK A01 T02400152  RH  059%=      5-min Rain = 0
KANS 141610Z 24008KT 24/15 A3001 RMK A01 T02400149  RH  058%=      5-min Rain = 0
KANS 141615Z 24007G12KT 24/15 A3001 RMK A01 T02400149  RH  058%=      5-min Rain = 0
KANS 141620Z 26009KT 24/14 A3001 RMK A01 T02400144  RH  056%=      5-min Rain = 0
KANS 141625Z 27009KT 24/14 A30 RMK A01 T02410144  RH  056%=      5-min Rain = 0
KANS 141630Z 26009KT 24/14 A30 RMK A01 T02410142  RH  055%=      5-min Rain = 0
KANS 141635Z 26008KT 24/14 A30 RMK A01 T02420139  RH  054%=      5-min Rain = 0
KANS 141640Z 25006KT 24/14 A3001 RMK A01 T02440139  RH  053%=      5-min Rain = 0
KANS 141645Z 25008G13KT 25/13 A3001 RMK A01 T02460134  RH  051%=      5-min Rain = 0
KANS 141650Z 26010KT 25/13 A3001 RMK A01 T02480126  RH  048%=      5-min Rain = 0
KANS 141655Z 25010KT 25/12 A3001 RMK A01 T02490119  RH  045%=      5-min Rain = 0
KANS 141700Z 25010KT 25/12 A3001 RMK A01 T02520118  RH  044%=      5-min Rain = 0
KANS 141705Z 26009KT 26/12 A3001 RMK A01 T02550116  RH  043%=      5-min Rain = 0
KANS 141710Z 27010KT 26/11 A30 RMK A01 T02590112  RH  040%=      5-min Rain = 0
KANS 141715Z 27009G14KT 26/10 A30 RMK A01 T02640104  RH  037%=      5-min Rain = 0
KANS 141720Z 26009G14KT 27/10 A30 RMK A01 T02690095  RH  034%=      5-min Rain = 0
KANS 141725Z 27011G16KT 28/09 A30 RMK A01 T02760088  RH  031%=      5-min Rain = 0
KANS 141730Z 26013KT 28/08 A30 RMK A01 T02790079  RH  029%=      5-min Rain = 0
KANS 141735Z 26011G17KT 28/07 A30 RMK A01 T02830067  RH  026%=      5-min Rain = 0
KANS 141740Z 25013G21KT 29/05 A30 RMK A01 T02890048  RH  022%=      5-min Rain = 0
KANS 141745Z 24016G24KT 29/05 A30 RMK A01 T02890054  RH  023%=      5-min Rain = 0
KANS 141750Z 23015G21KT 29/06 A3001 RMK A01 T02860058  RH  024%=      5-min Rain = 0
KANS 141755Z 24011G19KT 29/06 A3001 RMK A01 T02870058  RH  024%=      5-min Rain = 0
KANS 141800Z 23011G18KT 29/06 A3001 RMK A01 T02880056  RH  023%=      5-min Rain = 0
KANS 141805Z 24011G16KT 29/05 A30 RMK A01 T02870052  RH  023%=      5-min Rain = 0
KANS 141810Z 22012G21KT 29/04 A30 RMK A01 T02860044  RH  022%=      5-min Rain = 0
KANS 141815Z 21010KT 29/04 A30 RMK A01 T02850044  RH  022%=      5-min Rain = 0
KANS 141820Z 21009KT 29/05 A30 RMK A01 T02860045  RH  022%=      5-min Rain = 0
KANS 141825Z 21010KT 29/04 A30 RMK A01 T02850039  RH  021%=      5-min Rain = 0
KANS 141830Z 22010G16KT 29/04 A3001 RMK A01 T02860042  RH  021%=      5-min Rain = 0
KANS 141835Z 22013G20KT 28/04 A3001 RMK A01 T02840044  RH  022%=      5-min Rain = 0
KANS 141840Z 22013G20KT 28/05 A30 RMK A01 T02830046  RH  022%=      5-min Rain = 0
KANS 141845Z 21012G19KT 28/05 A30 RMK A01 T02830047  RH  023%=      5-min Rain = 0
KANS 141850Z 23014G20KT 28/05 A30 RMK A01 T02830049  RH  023%=      5-min Rain = 0
KANS 141855Z 24013G19KT 28/05 A30 RMK A01 T02820052  RH  023%=      5-min Rain = 0
KANS 141900Z 23012G17KT 29/06 A2999 RMK A01 T02850055  RH  024%=      5-min Rain = 0
KANS 141905Z 23015G22KT 29/05 A2999 RMK A01 T02870052  RH  023%=      5-min Rain = 0
KANS 141910Z 23014G20KT 29/05 A2999 RMK A01 T02880050  RH  022%=      5-min Rain = 0
KANS 141915Z 23017G22KT 29/05 A2999 RMK A01 T02890048  RH  022%=      5-min Rain = 0
KANS 141920Z 22015G21KT 29/05 A2998 RMK A01 T02910047  RH  021%=      5-min Rain = 0
KANS 141925Z 23016G22KT 30/04 A2998 RMK A01 T02950043  RH  020%=      5-min Rain = 0
KANS 141930Z 24015G21KT 30/03 A2998 RMK A01 T02980034  RH  019%=      5-min Rain = 0
KANS 141935Z 24015G20KT 30/03 A2997 RMK A01 T03020030  RH  018%=      5-min Rain = 0
KANS 141940Z 23013G20KT 30/03 A2997 RMK A01 T03040028  RH  017%=      5-min Rain = 0
KANS 141945Z 24014G19KT 31/02 A2996 RMK A01 T03090023  RH  016%=      5-min Rain = 0
KANS 141950Z 25011G17KT 31/02 A2996 RMK A01 T03140024  RH  016%=      5-min Rain = 0
KANS 141955Z 24013G19KT 32/02 A2996 RMK A01 T03160021  RH  015%=      5-min Rain = 0
KANS 142000Z 21011G16KT 31/03 A2996 RMK A01 T03140030  RH  017%=      5-min Rain = 0
KANS 142005Z 23009G15KT 31/03 A2996 RMK A01 T03130030  RH  017%=      5-min Rain = 0
KANS 142010Z 23010KT 31/03 A2996 RMK A01 T03090031  RH  017%=      5-min Rain = 0
KANS 142015Z 24009G15KT 32/03 A2995 RMK A01 T03180033  RH  017%=      5-min Rain = 0
KANS 142020Z 23008G13KT 32/03 A2995 RMK A01 T03240033  RH  016%=      5-min Rain = 0
KANS 142025Z 25009G14KT 32/03 A2995 RMK A01 T03220029  RH  016%=      5-min Rain = 0
KANS 142030Z 23010KT 32/03 A2995 RMK A01 T03170031  RH  016%=      5-min Rain = 0
KANS 142035Z 21011G16KT 31/03 A2995 RMK A01 T03120030  RH  017%=      5-min Rain = 0
KANS 142040Z 20012KT 31/03 A2994 RMK A01 T03100027  RH  017%=      5-min Rain = 0
KANS 142045Z 21009KT 31/03 A2994 RMK A01 T03110026  RH  016%=      5-min Rain = 0
KANS 142050Z 22010KT 32/02 A2994 RMK A01 T03200021  RH  015%=      5-min Rain = 0
KANS 142055Z 20007KT 32/02 A2994 RMK A01 T03170023  RH  016%=      5-min Rain = 0
KANS 142100Z 19007KT 31/02 A2993 RMK A01 T03110021  RH  016%=      5-min Rain = 0
KANS 142105Z 22007KT 31/03 A2993 RMK A01 T03090027  RH  017%=      5-min Rain = 0
KANS 142110Z 21008KT 31/03 A2993 RMK A01 T03070025  RH  017%=      5-min Rain = 0
KANS 142115Z 21010KT 31/02 A2993 RMK A01 T03050024  RH  017%=      5-min Rain = 0
KANS 142120Z 20009G15KT 30/03 A2993 RMK A01 T03040029  RH  018%=      5-min Rain = 0
KANS 142125Z 22010KT 30/04 A2992 RMK A01 T03030037  RH  019%=      5-min Rain = 0
KANS 142130Z 21009KT 30/04 A2992 RMK A01 T02990042  RH  020%=      5-min Rain = 0
KANS 142135Z 20008KT 30/04 A2992 RMK A01 T02990043  RH  020%=      5-min Rain = 0
KANS 142140Z 21008KT 30/05 A2991 RMK A01 T03020046  RH  020%=      5-min Rain = 0
KANS 142145Z 22007KT 30/05 A2991 RMK A01 T03040049  RH  020%=      5-min Rain = 0
KANS 142150Z 22008KT 30/04 A2991 RMK A01 T03040043  RH  019%=      5-min Rain = 0
KANS 142155Z 22009G14KT 31/04 A299 RMK A01 T03070041  RH  019%=      5-min Rain = 0
KANS 142200Z 21011KT 32/04 A299 RMK A01 T03160044  RH  018%=      5-min Rain = 0
KANS 142205Z 21010G17KT 32/04 A2989 RMK A01 T03200042  RH  018%=      5-min Rain = 0
KANS 142210Z 20013G19KT 33/03 A2989 RMK A01 T03250025  RH  015%=      5-min Rain = 0
KANS 142215Z 20014G21KT 33/02 A2989 RMK A01 T03270024  RH  015%=      5-min Rain = 0
KANS 142220Z 20015G21KT 33/03 A2989 RMK A01 T03270025  RH  015%=      5-min Rain = 0
KANS 142225Z 19015G22KT 33/02 A2988 RMK A01 T03260021  RH  015%=      5-min Rain = 0
KANS 142230Z 20013G21KT 33/03 A2988 RMK A01 T03270026  RH  015%=      5-min Rain = 0
KANS 142235Z 21012G19KT 33/03 A2988 RMK A01 T03290029  RH  015%=      5-min Rain = 0
KANS 142240Z 21013G21KT 33/03 A2988 RMK A01 T03280029  RH  015%=      5-min Rain = 0
KANS 142245Z 21013G20KT 33/03 A2988 RMK A01 T03270029  RH  015%=      5-min Rain = 0
KANS 142250Z 21010G17KT 33/03 A2988 RMK A01 T03290032  RH  016%=      5-min Rain = 0
KANS 142255Z 21012KT 33/04 A2988 RMK A01 T03300035  RH  016%=      5-min Rain = 0
KANS 142300Z 21012G19KT 33/04 A2987 RMK A01 T03290039  RH  016%=      5-min Rain = 0
KANS 142305Z 20015G21KT 33/04 A2988 RMK A01 T03280042  RH  017%=      5-min Rain = 0
KANS 142310Z 22014G20KT 33/05 A2987 RMK A01 T03270045  RH  017%=      5-min Rain = 0
KANS 142315Z 20014G24KT 33/04 A2987 RMK A01 T03260038  RH  016%=      5-min Rain = 0
KANS 142320Z 20013G20KT 33/03 A2987 RMK A01 T03260033  RH  016%=      5-min Rain = 0
KANS 142325Z 21014G22KT 33/04 A2987 RMK A01 T03250040  RH  017%=      5-min Rain = 0
KANS 142330Z 20014G20KT 32/04 A2987 RMK A01 T03240042  RH  017%=      5-min Rain = 0
KANS 142335Z 19013G19KT 32/04 A2987 RMK A01 T03240038  RH  017%=      5-min Rain = 0
KANS 142340Z 20012G17KT 33/04 A2987 RMK A01 T03250035  RH  016%=      5-min Rain = 0
KANS 142345Z 19012G17KT 32/03 A2986 RMK A01 T03240034  RH  016%=      5-min Rain = 0
KANS 142350Z 19012G18KT 32/04 A2986 RMK A01 T03230039  RH  017%=      5-min Rain = 0
KANS 142355Z 20012G17KT 32/04 A2986 RMK A01 T03230043  RH  017%=      5-min Rain = 0
KANS 150000Z 20011G16KT 32/04 A2986 RMK A01 T03220043  RH  018%=      5-min Rain = 0
KANS 150005Z 21012G17KT 32/04 A2986 RMK A01 T03210042  RH  017%=      5-min Rain = 0
KANS 150010Z 20011G18KT 32/05 A2986 RMK A01 T03210045  RH  018%=      5-min Rain = 0
KANS 150015Z 20009G15KT 32/05 A2986 RMK A01 T03210046  RH  018%=      5-min Rain = 0
KANS 150020Z 19011G16KT 32/05 A2986 RMK A01 T03190047  RH  018%=      5-min Rain = 0
KANS 150025Z 18011G17KT 32/05 A2987 RMK A01 T03170046  RH  018%=      5-min Rain = 0
KANS 150030Z 19009G14KT 32/05 A2987 RMK A01 T03170048  RH  019%=      5-min Rain = 0
KANS 150035Z 20012KT 32/05 A2987 RMK A01 T03150051  RH  019%=      5-min Rain = 0
KANS 150040Z 20012KT 31/05 A2987 RMK A01 T03140052  RH  020%=      5-min Rain = 0
KANS 150045Z 19012G17KT 31/06 A2987 RMK A01 T03120056  RH  020%=      5-min Rain = 0
KANS 150050Z 20012KT 31/06 A2987 RMK A01 T03100057  RH  021%=      5-min Rain = 0
KANS 150055Z 19011G18KT 31/06 A2987 RMK A01 T03080056  RH  021%=      5-min Rain = 0
KANS 150100Z 19012G18KT 31/05 A2987 RMK A01 T03060049  RH  020%=      5-min Rain = 0
KANS 150105Z 18011G17KT 30/05 A2987 RMK A01 T03040047  RH  020%=      5-min Rain = 0
KANS 150110Z 18011G17KT 30/04 A2987 RMK A01 T03020043  RH  020%=      5-min Rain = 0
KANS 150115Z 18012KT 30/04 A2988 RMK A01 T02990036  RH  019%=      5-min Rain = 0
KANS 150120Z 18010KT 30/03 A2988 RMK A01 T02970032  RH  019%=      5-min Rain = 0
KANS 150125Z 18008KT 29/03 A2988 RMK A01 T02940032  RH  019%=      5-min Rain = 0
KANS 150130Z 18008KT 29/03 A2988 RMK A01 T02910032  RH  019%=      5-min Rain = 0
KANS 150135Z 18008KT 29/03 A2988 RMK A01 T02880031  RH  019%=      5-min Rain = 0
KANS 150140Z 19008KT 29/03 A2988 RMK A01 T02850030  RH  020%=      5-min Rain = 0
KANS 150145Z 19007KT 28/03 A2988 RMK A01 T02820031  RH  020%=      5-min Rain = 0
KANS 150150Z 18006KT 28/03 A2988 RMK A01 T02770031  RH  021%=      5-min Rain = 0
KANS 150155Z 17007KT 27/03 A2989 RMK A01 T02740031  RH  021%=      5-min Rain = 0
KANS 150200Z 17006KT 27/03 A2989 RMK A01 T02710033  RH  022%=      5-min Rain = 0
KANS 150205Z 17007KT 27/03 A2989 RMK A01 T02680034  RH  022%=      5-min Rain = 0
KANS 150210Z 17007KT 27/04 A2989 RMK A01 T02650036  RH  023%=      5-min Rain = 0
KANS 150215Z 17008KT 26/04 A299 RMK A01 T02630037  RH  024%=      5-min Rain = 0
KANS 150220Z 17008KT 26/04 A299 RMK A01 T02610038  RH  024%=      5-min Rain = 0
KANS 150225Z 17008KT 26/04 A299 RMK A01 T02600038  RH  024%=      5-min Rain = 0
KANS 150230Z 16009KT 26/04 A299 RMK A01 T02590040  RH  025%=      5-min Rain = 0
KANS 150235Z 16008KT 26/04 A299 RMK A01 T02580042  RH  025%=      5-min Rain = 0
KANS 150240Z 15007KT 26/04 A2991 RMK A01 T02550042  RH  026%=      5-min Rain = 0
KANS 150245Z 16007KT 25/04 A2991 RMK A01 T02520043  RH  026%=      5-min Rain = 0
KANS 150250Z 18007KT 25/04 A2991 RMK A01 T02490044  RH  027%=      5-min Rain = 0
KANS 150255Z 18007KT 25/05 A2991 RMK A01 T02460045  RH  028%=      5-min Rain = 0
KANS 150300Z 17007KT 24/05 A2991 RMK A01 T02440046  RH  028%=      5-min Rain = 0
KANS 150305Z 17006KT 24/05 A2992 RMK A01 T02430046  RH  028%=      5-min Rain = 0
KANS 150310Z 17006KT 24/05 A2992 RMK A01 T02410047  RH  029%=      5-min Rain = 0
KANS 150315Z 17006KT 24/05 A2992 RMK A01 T02400047  RH  029%=      5-min Rain = 0
KANS 150320Z 16006KT 24/05 A2992 RMK A01 T02390048  RH  029%=      5-min Rain = 0
KANS 150325Z 16006KT 24/05 A2992 RMK A01 T02360048  RH  030%=      5-min Rain = 0
KANS 150330Z 15006KT 23/05 A2993 RMK A01 T02310047  RH  031%=      5-min Rain = 0
KANS 150335Z 14007KT 23/05 A2993 RMK A01 T02260047  RH  032%=      5-min Rain = 0
KANS 150340Z 14007KT 22/05 A2994 RMK A01 T02230049  RH  033%=      5-min Rain = 0
KANS 150345Z 13007KT 23/05 A2994 RMK A01 T02250053  RH  033%=      5-min Rain = 0
KANS 150350Z 13007KT 23/05 A2994 RMK A01 T02260052  RH  033%=      5-min Rain = 0
KANS 150355Z 13008KT 22/06 A2995 RMK A01 T02240060  RH  035%=      5-min Rain = 0
KANS 150400Z 14010KT 23/10 A2995 RMK A01 T02280097  RH  044%=      5-min Rain = 0
KANS 150405Z 15010G15KT 23/12 A2995 RMK A01 T02310122  RH  051%=      5-min Rain = 0
KANS 150410Z 15011G16KT 24/14 A2995 RMK A01 T02360144  RH  058%=      5-min Rain = 0
KANS 150415Z 15011G17KT 24/15 A2995 RMK A01 T02380152  RH  060%=      5-min Rain = 0
KANS 150420Z 15011KT 24/15 A2995 RMK A01 T02370153  RH  061%=      5-min Rain = 0
KANS 150425Z 15012G18KT 24/15 A2995 RMK A01 T02360154  RH  061%=      5-min Rain = 0
KANS 150430Z 15012G17KT 24/16 A2995 RMK A01 T02350155  RH  062%=      5-min Rain = 0
KANS 150435Z 16010G15KT 23/16 A2996 RMK A01 T02340155  RH  063%=      5-min Rain = 0
KANS 150440Z 16011G18KT 23/16 A2996 RMK A01 T02330156  RH  064%=      5-min Rain = 0
KANS 150445Z 16010G15KT 23/16 A2996 RMK A01 T02320157  RH  064%=      5-min Rain = 0
KANS 150450Z 16012KT 23/16 A2996 RMK A01 T02310158  RH  065%=      5-min Rain = 0
KANS 150455Z 15011KT 23/16 A2996 RMK A01 T02300159  RH  066%=      5-min Rain = 0

Page generated in 0.0288 seconds.